Time;durP1;ratioP1;P1;durP2;ratioP2;P2;SDS_P1;SDS_P2;PMS_P1;PMS_P2;Temp;Humidity;BMP_temperature;BMP_pressure;BME280_temperature;BME280_humidity;BME280_pressure;Samples;Min_cycle;Max_cycle;Signal;HPM_P1;HPM_P2
2022/10/28 00:01:23;;;;;;;6.45;4.78;;;;;;;15.26;78.79;100621.94;4348339;33;34834;-72
2022/10/28 00:03:55;;;;;;;4.30;3.90;;;;;;;14.95;80.37;100623.06;4335125;33;34305;-73
2022/10/28 00:06:26;;;;;;;3.10;2.35;;;;;;;15.42;77.85;100625.28;4348296;33;34336;-72
2022/10/28 00:08:55;;;;;;;5.15;4.10;;;;;;;15.55;78.05;100622.50;4335109;33;34298;-73
2022/10/28 00:11:29;;;;;;;5.03;2.65;;;;;;;15.60;77.47;100619.84;4334970;33;34576;-72
2022/10/28 00:14:00;;;;;;;5.93;5.20;;;;;;;15.47;76.95;100626.09;4348132;33;35730;-73
2022/10/28 00:16:31;;;;;;;2.95;1.90;;;;;;;15.27;78.40;100624.53;4334865;33;33564;-72
2022/10/28 00:19:00;;;;;;;4.37;4.05;;;;;;;15.13;78.37;100621.19;4348178;33;33572;-73
2022/10/28 00:21:30;;;;;;;3.28;2.92;;;;;;;15.73;75.53;100624.06;4348086;33;33859;-72
2022/10/28 00:23:58;;;;;;;3.10;2.87;;;;;;;16.31;73.13;100621.62;4348041;33;34413;-72
2022/10/28 00:26:30;;;;;;;3.90;3.45;;;;;;;15.83;74.35;100618.72;4347912;33;34591;-72
2022/10/28 00:29:10;;;;;;;2.30;2.17;;;;;;;15.70;75.14;100620.59;4348069;33;33448;-72
2022/10/28 00:31:38;;;;;;;4.05;3.65;;;;;;;15.39;76.68;100615.69;4334633;33;34733;-72
2022/10/28 00:34:10;;;;;;;3.83;3.47;;;;;;;14.90;80.03;100621.38;4347924;33;34960;-72
2022/10/28 00:36:40;;;;;;;3.37;3.08;;;;;;;15.63;77.26;100618.94;4347830;33;34357;-72
2022/10/28 00:39:14;;;;;;;3.10;2.90;;;;;;;15.27;77.68;100621.91;4347812;33;33356;-72
2022/10/28 00:41:55;;;;;;;2.75;2.55;;;;;;;15.33;78.08;100621.84;4334628;33;34051;-73
2022/10/28 00:44:56;;;;;;;3.67;3.37;;;;;;;14.84;79.20;100622.31;4348145;33;35257;-72
2022/10/28 00:47:50;;;;;;;5.68;5.03;;;;;;;15.14;78.29;100620.28;4347672;33;34391;-72
2022/10/28 00:50:38;;;;;;;10.20;3.15;;;;;;;15.21;77.62;100623.72;4347757;33;34445;-72
2022/10/28 00:53:28;;;;;;;1.75;1.42;;;;;;;15.07;79.00;100616.87;4347726;33;34235;-72
2022/10/28 00:55:57;;;;;;;4.03;3.67;;;;;;;15.02;79.05;100626.53;4334380;33;35083;-73
2022/10/28 00:58:25;;;;;;;5.12;2.80;;;;;;;15.08;79.40;100615.09;4347623;33;34505;-72
2022/10/28 01:00:53;;;;;;;4.07;3.00;;;;;;;15.68;76.26;100615.38;4347523;33;33687;-72
2022/10/28 01:03:22;;;;;;;2.33;2.12;;;;;;;15.77;76.09;100619.66;4348472;33;34630;-71
2022/10/28 01:05:51;;;;;;;2.72;2.20;;;;;;;15.32;77.43;100609.63;4349527;33;35138;-72
2022/10/28 01:08:19;;;;;;;3.30;2.75;;;;;;;15.50;77.06;100605.06;4336375;33;34437;-73
2022/10/28 01:11:06;;;;;;;4.43;2.55;;;;;;;15.77;75.72;100610.94;4349525;33;34475;-72
2022/10/28 01:13:55;;;;;;;13.40;2.83;;;;;;;15.33;77.34;100606.09;4331807;33;145782;-73
2022/10/28 01:16:32;;;;;;;1.23;1.17;;;;;;;15.35;76.24;100609.59;4326431;33;35714;-72
2022/10/28 01:19:22;;;;;;;4.50;4.12;;;;;;;15.73;74.85;100610.94;4336197;33;35230;-73
2022/10/28 01:22:12;;;;;;;2.80;2.50;;;;;;;14.84;78.89;100603.94;4349727;33;33391;-72
2022/10/28 01:24:54;;;;;;;4.32;3.92;;;;;;;14.82;79.94;100607.44;4349460;33;34789;-73
2022/10/28 01:27:37;;;;;;;14.57;5.90;;;;;;;14.50;81.36;100600.66;4336199;33;34951;-73
2022/10/28 01:30:07;;;;;;;2.45;2.28;;;;;;;14.76;80.83;100601.34;4349195;33;34400;-72
2022/10/28 01:33:09;;;;;;;3.42;3.22;;;;;;;14.91;79.75;100603.00;4349315;33;33443;-73
2022/10/28 01:35:43;;;;;;;3.28;2.97;;;;;;;15.03;79.06;100598.53;4349563;33;34939;-72
2022/10/28 01:38:22;;;;;;;2.03;1.92;;;;;;;15.26;77.39;100593.91;4336203;33;35994;-72
2022/10/28 01:41:07;;;;;;;2.78;2.40;;;;;;;15.09;78.19;100595.88;4336099;33;34441;-72
2022/10/28 01:44:00;;;;;;;3.75;3.22;;;;;;;15.37;77.16;100596.47;4336075;33;34160;-72
2022/10/28 01:46:36;;;;;;;4.62;3.25;;;;;;;14.78;79.43;100591.72;4349288;33;33992;-72
2022/10/28 01:49:13;;;;;;;1.35;1.30;;;;;;;14.94;79.64;100584.59;4349387;33;35005;-73
2022/10/28 01:51:45;;;;;;;4.75;3.45;;;;;;;15.13;78.85;100589.69;4335995;33;34563;-72
2022/10/28 01:54:21;;;;;;;4.95;3.58;;;;;;;15.42;77.58;100597.25;4336110;33;33366;-73
2022/10/28 01:56:50;;;;;;;2.75;2.55;;;;;;;15.05;79.55;100599.37;4336036;33;34650;-72
2022/10/28 01:59:21;;;;;;;2.40;1.55;;;;;;;14.68;80.63;100594.44;4335999;33;35945;-73
2022/10/28 02:01:50;;;;;;;2.70;2.47;;;;;;;14.85;80.24;100595.19;4335988;33;34573;-72
2022/10/28 02:04:18;;;;;;;3.20;2.65;;;;;;;14.59;81.04;100598.00;4349225;33;34129;-72
2022/10/28 02:06:50;;;;;;;2.60;2.37;;;;;;;14.51;81.37;100594.53;4349029;33;34004;-72
2022/10/28 02:09:18;;;;;;;3.28;2.97;;;;;;;14.69;80.19;100590.94;4349237;33;35505;-72
2022/10/28 02:12:13;;;;;;;3.80;3.45;;;;;;;14.78;79.65;100590.88;4335901;33;33987;-72
2022/10/28 02:15:00;;;;;;;2.60;2.40;;;;;;;15.02;79.29;100588.91;4349059;33;33417;-72
2022/10/28 02:17:46;;;;;;;2.28;2.08;;;;;;;14.72;80.70;100588.31;4349155;33;33983;-72
2022/10/28 02:20:39;;;;;;;1.95;1.70;;;;;;;14.44;82.66;100580.59;4349135;33;35951;-73
2022/10/28 02:23:10;;;;;;;3.92;3.55;;;;;;;14.71;81.21;100589.19;4349053;33;35194;-72
2022/10/28 02:25:44;;;;;;;2.80;2.60;;;;;;;14.58;81.56;100585.78;4335903;33;33494;-73
2022/10/28 02:28:17;;;;;;;3.87;2.92;;;;;;;14.53;82.11;100587.53;4349150;33;34658;-73
2022/10/28 02:30:48;;;;;;;2.42;2.17;;;;;;;14.22;83.42;100585.97;4348003;33;36006;-73
2022/10/28 02:33:23;;;;;;;3.65;3.08;;;;;;;14.47;82.61;100591.06;4348972;33;34511;-73
2022/10/28 02:36:03;;;;;;;5.07;4.57;;;;;;;14.62;81.87;100589.25;4335706;33;33894;-73
2022/10/28 02:38:35;;;;;;;4.18;2.40;;;;;;;14.61;81.70;100598.84;4348999;33;35076;-72
2022/10/28 02:41:09;;;;;;;3.40;3.10;;;;;;;14.72;81.74;100590.94;4335791;33;35066;-73
2022/10/28 02:43:38;;;;;;;4.82;2.78;;;;;;;14.89;80.41;100599.50;4348872;33;34600;-72
2022/10/28 02:46:07;;;;;;;2.22;2.10;;;;;;;14.64;81.14;100600.59;4335827;33;33107;-73
2022/10/28 02:48:46;;;;;;;2.30;2.17;;;;;;;14.34;82.74;100589.41;4349165;33;34838;-72
2022/10/28 02:51:17;;;;;;;4.47;4.07;;;;;;;14.52;82.32;100589.25;4335859;33;34760;-72
2022/10/28 02:54:03;;;;;;;3.25;2.65;;;;;;;14.48;81.84;100582.31;4348904;33;34398;-73
2022/10/28 02:56:36;;;;;;;3.28;2.97;;;;;;;14.76;81.19;100582.16;4335692;33;33454;-73
2022/10/28 02:59:08;;;;;;;1.50;1.42;;;;;;;14.60;81.45;100571.78;4335526;33;34185;-72
2022/10/28 03:01:37;;;;;;;4.78;2.08;;;;;;;14.49;81.70;100570.06;4335697;33;34994;-73
2022/10/28 03:04:05;;;;;;;3.83;3.50;;;;;;;14.30;83.00;100571.97;4348777;33;34589;-73
2022/10/28 03:06:33;;;;;;;9.77;2.85;;;;;;;14.19;84.37;100570.28;4348881;33;34411;-73
2022/10/28 03:09:01;;;;;;;3.50;2.58;;;;;;;14.36;83.03;100578.00;4348757;33;34659;-72
2022/10/28 03:11:29;;;;;;;3.78;3.42;;;;;;;14.96;80.96;100575.00;4335468;33;35051;-72
2022/10/28 03:13:57;;;;;;;1.87;1.55;;;;;;;15.76;75.87;100577.66;4348633;33;34608;-72
2022/10/28 03:16:25;;;;;;;1.60;1.52;;;;;;;15.44;77.33;100576.25;4347419;33;33906;-73
2022/10/28 03:18:53;;;;;;;4.45;3.53;;;;;;;15.26;77.72;100580.81;4348600;33;34684;-72
2022/10/28 03:21:21;;;;;;;8.52;3.35;;;;;;;15.20;77.61;100583.50;4348563;33;35932;-72
2022/10/28 03:23:49;;;;;;;3.37;3.08;;;;;;;15.53;76.50;100581.44;4348663;33;34487;-72
2022/10/28 03:26:17;;;;;;;3.67;2.97;;;;;;;14.80;79.63;100578.59;4347810;33;33496;-72
2022/10/28 03:28:45;;;;;;;6.35;4.72;;;;;;;14.89;80.05;100581.16;4348661;33;34074;-72
2022/10/28 03:31:14;;;;;;;2.95;2.75;;;;;;;15.50;76.05;100579.69;4348304;33;35846;-73
2022/10/28 03:33:42;;;;;;;5.00;3.10;;;;;;;14.62;81.45;100587.50;4348642;33;34027;-72
2022/10/28 03:36:10;;;;;;;4.50;3.37;;;;;;;14.28;82.89;100592.06;4348505;33;34315;-72
2022/10/28 03:38:38;;;;;;;3.33;3.03;;;;;;;14.60;82.36;100586.63;4348421;33;34042;-72
2022/10/28 03:41:06;;;;;;;2.47;1.52;;;;;;;14.68;81.83;100581.31;4348510;33;35152;-73
2022/10/28 03:43:34;;;;;;;1.92;1.73;;;;;;;14.34;83.41;100578.91;4348738;33;35307;-71
2022/10/28 03:46:02;;;;;;;2.85;2.65;;;;;;;14.63;82.08;100585.72;4348587;33;33540;-72
2022/10/28 03:48:30;;;;;;;4.12;3.42;;;;;;;14.43;83.01;100578.84;4348485;33;34750;-72
2022/10/28 03:50:58;;;;;;;3.90;3.60;;;;;;;14.56;82.40;100583.13;4348428;33;35599;-73
2022/10/28 03:53:26;;;;;;;4.93;4.18;;;;;;;15.34;78.99;100578.97;4348377;33;34576;-72
2022/10/28 03:55:59;;;;;;;2.08;1.95;;;;;;;14.91;79.71;100582.03;4348679;33;34372;-71
2022/10/28 03:58:27;;;;;;;5.35;4.15;;;;;;;15.22;79.34;100584.34;4348310;33;34650;-72
2022/10/28 04:00:56;;;;;;;5.60;3.65;;;;;;;15.04;79.14;100574.06;4348246;33;35051;-73
2022/10/28 04:03:25;;;;;;;1.77;1.62;;;;;;;14.98;79.79;100578.47;4348329;33;34448;-72
2022/10/28 04:05:53;;;;;;;3.75;3.35;;;;;;;14.76;80.52;100569.03;4335241;33;34118;-73
2022/10/28 04:08:21;;;;;;;3.25;2.97;;;;;;;14.79;80.85;100571.63;4335066;33;34878;-72
2022/10/28 04:10:49;;;;;;;5.32;3.87;;;;;;;14.88;80.30;100576.81;4348222;33;34923;-72
2022/10/28 04:13:17;;;;;;;8.32;3.65;;;;;;;14.89;80.10;100568.03;4348170;33;34494;-72
2022/10/28 04:15:45;;;;;;;3.10;2.85;;;;;;;15.03;78.89;100564.44;4348189;33;33672;-72
2022/10/28 04:18:13;;;;;;;3.40;3.10;;;;;;;14.74;80.75;100563.81;4348062;33;34832;-73
2022/10/28 04:20:41;;;;;;;5.22;3.90;;;;;;;14.81;79.93;100559.37;4348005;33;35002;-72
2022/10/28 04:23:13;;;;;;;6.03;5.40;;;;;;;14.39;82.22;100564.91;4334640;33;33039;-72
2022/10/28 04:25:42;;;;;;;2.97;2.78;;;;;;;14.86;81.09;100561.94;4348122;33;34153;-72
2022/10/28 04:28:10;;;;;;;8.57;4.53;;;;;;;15.34;78.21;100560.59;4347954;33;34715;-72
2022/10/28 04:30:38;;;;;;;2.75;2.33;;;;;;;15.75;75.53;100555.81;4347843;33;34630;-72
2022/10/28 04:33:09;;;;;;;2.55;2.35;;;;;;;15.56;76.36;100555.09;4347992;33;34411;-72
2022/10/28 04:35:38;;;;;;;3.20;2.92;;;;;;;14.70;80.00;100549.00;4334767;33;33451;-72
2022/10/28 04:38:05;;;;;;;3.78;2.60;;;;;;;14.50;82.04;100551.72;4348895;33;34798;-72
2022/10/28 04:40:34;;;;;;;2.67;2.47;;;;;;;14.80;80.69;100552.37;4349700;33;34959;-72
2022/10/28 04:43:02;;;;;;;3.50;3.20;;;;;;;14.91;78.96;100550.56;4349844;33;35389;-72
2022/10/28 04:45:34;;;;;;;3.50;3.20;;;;;;;14.66;81.24;100549.00;4349616;33;33500;-72
2022/10/28 04:48:02;;;;;;;2.72;2.10;;;;;;;14.84;80.52;100548.87;4349623;33;34840;-72
2022/10/28 04:50:29;;;;;;;2.80;2.55;;;;;;;14.59;81.27;100542.94;4349663;33;35036;-72
2022/10/28 04:52:59;;;;;;;5.32;3.97;;;;;;;14.35;82.66;100542.22;4348686;33;34144;-72
2022/10/28 04:55:27;;;;;;;3.28;2.97;;;;;;;14.35;82.83;100528.25;4349628;33;34292;-72
2022/10/28 04:57:57;;;;;;;1.98;1.80;;;;;;;14.30;84.04;100532.66;4349431;33;34917;-73
2022/10/28 05:00:27;;;;;;;5.18;3.40;;;;;;;14.35;83.89;100539.59;4336385;33;34148;-71
2022/10/28 05:02:55;;;;;;;1.65;1.55;;;;;;;14.38;83.79;100542.22;4349509;33;34379;-72
2022/10/28 05:05:24;;;;;;;1.85;1.75;;;;;;;14.47;83.13;100541.28;4349628;33;33775;-72
2022/10/28 05:07:52;;;;;;;3.90;3.60;;;;;;;14.46;83.26;100541.28;4349581;33;34602;-72
2022/10/28 05:10:21;;;;;;;3.28;2.15;;;;;;;14.33;84.28;100545.72;4349502;33;35028;-72
2022/10/28 05:12:49;;;;;;;3.47;3.17;;;;;;;14.26;83.94;100547.53;4349498;33;34278;-72
2022/10/28 05:15:17;;;;;;;3.53;3.22;;;;;;;14.49;83.57;100542.13;4349500;33;33416;-72
2022/10/28 05:17:46;;;;;;;3.50;3.12;;;;;;;14.39;83.77;100543.06;4336210;33;34899;-71
2022/10/28 05:20:16;;;;;;;3.40;3.05;;;;;;;14.19;84.49;100545.84;4349586;33;35054;-71
2022/10/28 05:22:49;;;;;;;5.85;3.28;;;;;;;13.95;86.57;100550.31;4349615;33;33708;-72
2022/10/28 05:25:17;;;;;;;2.17;1.98;;;;;;;14.16;85.09;100546.72;4336347;33;33286;-72
2022/10/28 05:27:46;;;;;;;6.30;3.75;;;;;;;13.90;86.90;100548.59;4336117;33;33914;-72
2022/10/28 05:30:14;;;;;;;4.78;3.37;;;;;;;14.34;85.01;100555.31;4349221;33;35938;-72
2022/10/28 05:32:42;;;;;;;4.18;2.95;;;;;;;14.04;86.83;100555.50;4349423;33;34679;-72
2022/10/28 05:35:10;;;;;;;4.12;3.83;;;;;;;14.26;84.77;100557.12;4349397;33;33504;-71
2022/10/28 05:37:38;;;;;;;3.62;3.20;;;;;;;14.85;82.53;100555.84;4349280;33;34701;-72
2022/10/28 05:40:07;;;;;;;3.28;3.03;;;;;;;14.39;84.36;100557.03;4349558;33;35815;-72
2022/10/28 05:42:42;;;;;;;3.00;2.80;;;;;;;14.91;81.84;100555.81;4349293;33;34435;-71
2022/10/28 05:45:10;;;;;;;3.22;3.03;;;;;;;14.65;82.92;100563.00;4349351;33;33608;-72
2022/10/28 05:47:46;;;;;;;1.85;1.75;;;;;;;14.39;83.96;100564.03;4349342;33;34918;-72
2022/10/28 05:50:17;;;;;;;2.30;1.98;;;;;;;14.25;85.11;100563.25;4349070;33;35185;-71
2022/10/28 05:52:50;;;;;;;3.35;1.55;;;;;;;14.23;83.92;100571.12;4349240;33;34494;-71
2022/10/28 05:55:20;;;;;;;2.55;2.37;;;;;;;15.02;80.03;100573.16;4349408;33;33562;-71
2022/10/28 05:57:49;;;;;;;3.42;2.83;;;;;;;14.98;79.63;100573.22;4349222;33;33179;-72
2022/10/28 06:00:20;;;;;;;3.50;2.12;;;;;;;14.55;81.98;100578.75;4349257;33;35039;-72
2022/10/28 06:02:48;;;;;;;2.90;2.12;;;;;;;14.85;80.03;100575.97;4335986;33;33625;-71
2022/10/28 06:05:17;;;;;;;2.55;2.30;;;;;;;14.58;81.94;100577.91;4349150;33;33500;-72
2022/10/28 06:07:44;;;;;;;5.75;3.60;;;;;;;14.94;80.50;100578.50;4349199;33;34783;-72
2022/10/28 06:10:13;;;;;;;2.12;1.95;;;;;;;14.36;83.81;100585.87;4349023;33;36023;-72
2022/10/28 06:12:41;;;;;;;3.72;2.40;;;;;;;14.15;84.93;100580.75;4349059;33;35270;-72
2022/10/28 06:15:09;;;;;;;2.17;1.80;;;;;;;14.52;83.86;100584.00;4349099;33;33337;-71
2022/10/28 06:17:37;;;;;;;2.65;2.28;;;;;;;15.32;79.08;100586.00;4349059;33;34677;-72
2022/10/28 06:20:05;;;;;;;3.85;2.12;;;;;;;14.15;83.61;100581.66;4349037;33;35002;-71
2022/10/28 06:22:33;;;;;;;3.85;2.62;;;;;;;14.28;84.12;100578.97;4349016;33;35266;-71
2022/10/28 06:25:02;;;;;;;2.47;2.28;;;;;;;14.60;82.68;100582.25;4349072;33;33628;-71
2022/10/28 06:27:30;;;;;;;1.25;1.20;;;;;;;14.38;84.32;100580.63;4348965;33;34036;-71
2022/10/28 06:29:58;;;;;;;2.20;2.05;;;;;;;14.97;80.78;100589.81;4348816;33;35950;-71
2022/10/28 06:32:26;;;;;;;4.35;1.85;;;;;;;15.21;78.37;100587.84;4348999;33;34359;-71
2022/10/28 06:34:54;;;;;;;5.20;1.95;;;;;;;14.72;81.71;100591.78;4348955;33;34262;-71
2022/10/28 06:37:22;;;;;;;1.20;1.15;;;;;;;14.39;83.88;100577.13;4348908;33;33994;-71
2022/10/28 06:39:52;;;;;;;3.30;2.55;;;;;;;15.14;80.14;100588.78;4348830;33;34892;-72
2022/10/28 06:42:20;;;;;;;2.10;1.83;;;;;;;14.83;82.08;100589.09;4348921;33;35373;-72
2022/10/28 06:44:49;;;;;;;3.55;2.97;;;;;;;14.43;83.11;100588.47;4348913;33;33744;-71
2022/10/28 06:47:17;;;;;;;4.65;2.75;;;;;;;14.74;82.45;100602.28;4348791;33;33979;-71
2022/10/28 06:49:45;;;;;;;2.58;2.15;;;;;;;15.01;80.98;100595.06;4348821;33;35045;-71
2022/10/28 06:52:14;;;;;;;1.58;1.48;;;;;;;15.26;79.10;100596.53;4348862;33;34386;-70
2022/10/28 06:54:42;;;;;;;1.05;1.05;;;;;;;14.59;82.48;100604.13;4348815;33;34213;-71
2022/10/28 06:57:10;;;;;;;3.95;2.03;;;;;;;14.06;85.49;100605.25;4335580;33;34718;-70
2022/10/28 06:59:38;;;;;;;3.45;3.15;;;;;;;14.26;85.93;100601.66;4348940;33;34955;-70
2022/10/28 07:02:10;;;;;;;2.47;2.30;;;;;;;14.03;87.09;100603.53;4347853;33;33913;-71
2022/10/28 07:04:38;;;;;;;4.75;2.83;;;;;;;14.69;82.91;100609.28;4348887;33;33602;-72
2022/10/28 07:07:07;;;;;;;1.77;1.62;;;;;;;14.90;81.85;100605.63;4348709;33;33676;-71
2022/10/28 07:09:38;;;;;;;1.58;1.48;;;;;;;15.06;81.30;100617.72;4348766;33;35351;-72
2022/10/28 07:12:06;;;;;;;3.95;2.35;;;;;;;14.44;85.58;100616.44;4335926;33;34518;-72
2022/10/28 07:14:35;;;;;;;22.52;14.93;;;;;;;14.48;84.51;100613.75;4348783;33;33429;-72
2022/10/28 07:17:03;;;;;;;7.25;6.65;;;;;;;14.99;82.15;100610.81;4348903;33;33989;-71
2022/10/28 07:19:31;;;;;;;6.75;2.20;;;;;;;15.06;81.38;100609.00;4348605;33;35987;-72
2022/10/28 07:21:59;;;;;;;1.62;1.52;;;;;;;14.91;80.51;100612.59;4348686;33;34452;-72
2022/10/28 07:24:27;;;;;;;1.75;1.65;;;;;;;15.57;78.42;100619.87;4348718;33;33332;-71
2022/10/28 07:26:55;;;;;;;1.87;1.37;;;;;;;15.62;78.40;100612.81;4348659;33;34707;-72
2022/10/28 07:29:25;;;;;;;1.52;1.42;;;;;;;15.05;81.14;100612.50;4348591;33;36017;-72
2022/10/28 07:31:54;;;;;;;4.72;2.75;;;;;;;14.70;83.17;100609.28;4348423;33;34617;-72
2022/10/28 07:34:22;;;;;;;4.80;2.35;;;;;;;15.24;79.96;100611.44;4348498;33;33815;-72
2022/10/28 07:36:54;;;;;;;1.02;0.82;;;;;;;14.97;80.99;100605.56;4348782;33;34103;-70
2022/10/28 07:39:23;;;;;;;7.78;5.85;;;;;;;14.72;81.78;100620.63;4348262;33;34996;-72
2022/10/28 07:41:51;;;;;;;4.32;3.42;;;;;;;14.43;84.91;100614.66;4348802;33;34523;-72
2022/10/28 07:44:19;;;;;;;2.60;1.73;;;;;;;14.77;83.53;100615.34;4348552;33;34108;-72
2022/10/28 07:46:47;;;;;;;1.05;1.05;;;;;;;15.12;80.90;100619.44;4348494;33;34084;-72
2022/10/28 07:49:18;;;;;;;12.15;3.60;;;;;;;15.17;80.68;100626.38;4348642;33;36007;-72
2022/10/28 07:51:49;;;;;;;2.10;1.87;;;;;;;15.49;79.51;100634.81;4348341;33;34456;-73
2022/10/28 07:54:17;;;;;;;1.75;1.65;;;;;;;15.10;79.89;100629.06;4348547;33;33511;-72
2022/10/28 07:56:46;;;;;;;1.65;1.27;;;;;;;14.91;79.94;100628.34;4348362;33;34683;-72
2022/10/28 07:59:14;;;;;;;6.35;3.70;;;;;;;14.81;81.53;100622.31;4348160;33;35051;-72
2022/10/28 08:01:42;;;;;;;2.47;2.28;;;;;;;14.57;82.83;100626.78;4343708;33;35393;-72
2022/10/28 08:04:10;;;;;;;2.55;1.95;;;;;;;14.88;82.24;100618.75;4344103;33;34146;-71
2022/10/28 08:06:38;;;;;;;1.75;1.35;;;;;;;14.69;83.05;100622.41;4348183;33;34789;-72
2022/10/28 08:09:07;;;;;;;0.80;0.80;;;;;;;14.72;82.42;100625.00;4347991;33;34611;-71
2022/10/28 08:11:35;;;;;;;1.80;1.70;;;;;;;15.16;80.11;100618.53;4346493;33;34578;-71
2022/10/28 08:14:03;;;;;;;0.60;0.60;;;;;;;14.67;81.39;100614.53;4338812;33;34395;-72
2022/10/28 08:16:31;;;;;;;0.93;0.93;;;;;;;14.85;81.04;100607.44;4333687;33;34763;-72
2022/10/28 08:18:59;;;;;;;2.17;1.40;;;;;;;14.50;83.41;100600.66;4333338;33;35695;-72
2022/10/28 08:21:34;;;;;;;2.72;2.50;;;;;;;15.02;79.95;100596.78;4333368;33;34551;-71
2022/10/28 08:24:02;;;;;;;3.85;3.45;;;;;;;14.55;82.88;100594.50;4333367;33;33578;-72
2022/10/28 08:26:30;;;;;;;1.42;1.33;;;;;;;14.17;86.22;100593.00;4333342;33;33453;-72
2022/10/28 08:29:00;;;;;;;1.33;1.23;;;;;;;14.29;86.37;100594.66;4333405;33;35045;-72
2022/10/28 08:31:31;;;;;;;1.92;1.37;;;;;;;14.48;83.49;100587.53;4332871;33;35214;-72
2022/10/28 08:33:59;;;;;;;1.95;1.85;;;;;;;13.95;87.38;100597.44;4344345;33;33541;-71
2022/10/28 08:36:27;;;;;;;2.22;2.05;;;;;;;14.38;85.47;100606.81;4347986;33;34939;-71
2022/10/28 08:38:58;;;;;;;0.98;0.98;;;;;;;14.18;84.16;100610.44;4347830;33;35055;-70
2022/10/28 08:41:32;;;;;;;0.47;0.47;;;;;;;14.30;83.28;100616.50;4347750;33;33221;-70
2022/10/28 08:44:30;;;;;;;1.23;0.80;;;;;;;13.85;86.58;100621.91;4345530;33;33613;-74
2022/10/28 08:47:10;;;;;;;1.62;1.52;;;;;;;14.30;85.22;100614.75;4347789;33;34072;-73
2022/10/28 08:49:40;;;;;;;2.92;2.28;;;;;;;14.40;85.26;100618.19;4347854;33;35038;-73
2022/10/28 08:52:31;;;;;;;7.82;2.12;;;;;;;14.35;84.81;100619.97;4335056;33;34335;-73
2022/10/28 08:55:13;;;;;;;1.10;0.95;;;;;;;14.04;87.58;100627.97;4339039;33;34249;-73
2022/10/28 08:58:12;;;;;;;2.37;1.40;;;;;;;14.40;85.65;100626.06;4331868;33;33957;-74
2022/10/28 09:00:43;;;;;;;1.65;1.55;;;;;;;14.83;82.13;100631.03;4332815;33;35917;-72
2022/10/28 09:03:11;;;;;;;1.75;1.35;;;;;;;14.18;86.26;100628.75;4331877;33;35231;-73
2022/10/28 09:05:46;;;;;;;0.93;0.93;;;;;;;14.04;88.46;100633.19;4343516;33;33383;-71
2022/10/28 09:08:24;;;;;;;0.40;0.40;;;;;;;14.91;81.50;100633.59;4347572;33;34755;-72
2022/10/28 09:11:25;;;;;;;2.20;2.00;;;;;;;15.04;80.57;100637.00;4346357;33;35118;-71
2022/10/28 09:13:56;;;;;;;1.20;1.02;;;;;;;14.23;86.48;100629.63;4347324;33;34524;-72
2022/10/28 09:16:49;;;;;;;1.42;1.35;;;;;;;14.18;88.52;100631.38;4347478;33;33727;-70
2022/10/28 09:19:50;;;;;;;2.67;1.52;;;;;;;14.33;86.56;100637.41;4333315;33;33784;-72
2022/10/28 09:22:35;;;;;;;2.40;2.20;;;;;;;14.40;86.37;100632.16;4339143;33;34799;-72
2022/10/28 09:25:21;;;;;;;4.35;1.55;;;;;;;15.30;80.22;100627.16;4335382;33;35070;-73
2022/10/28 09:27:59;;;;;;;1.37;0.95;;;;;;;14.86;82.92;100636.25;4336280;33;33653;-72
2022/10/28 09:31:01;;;;;;;1.80;1.62;;;;;;;14.77;82.72;100631.97;4321299;33;34146;-71
2022/10/28 09:33:42;;;;;;;2.37;2.20;;;;;;;15.11;80.85;100630.81;4334678;33;35060;-73
2022/10/28 09:36:17;;;;;;;1.80;1.70;;;;;;;14.16;87.51;100642.75;4348536;33;34417;-73
2022/10/28 09:38:46;;;;;;;1.87;1.77;;;;;;;14.83;82.08;100632.78;4349508;33;34277;-71
2022/10/28 09:41:21;;;;;;;2.75;2.55;;;;;;;14.41;84.30;100627.78;4336052;33;33984;-72
2022/10/28 09:43:57;;;;;;;0.90;0.90;;;;;;;14.63;82.18;100620.69;4336274;33;35935;-71
2022/10/28 09:46:27;;;;;;;1.55;1.45;;;;;;;14.72;82.20;100617.16;4349352;33;34441;-73
2022/10/28 09:49:05;;;;;;;0.75;0.75;;;;;;;14.68;82.05;100605.81;4349436;33;33369;-73
2022/10/28 09:51:54;;;;;;;2.67;2.47;;;;;;;14.04;85.07;100613.13;4349317;33;33938;-70
2022/10/28 09:54:31;;;;;;;4.87;0.73;;;;;;;13.85;87.35;100624.53;4336016;33;35883;-71
2022/10/28 09:57:01;;;;;;;8.40;2.08;;;;;;;14.55;83.80;100623.31;4336335;33;33814;-73
2022/10/28 09:59:29;;;;;;;1.83;1.73;;;;;;;14.96;81.01;100627.44;4335936;33;33498;-72
2022/10/28 10:01:57;;;;;;;2.28;2.10;;;;;;;14.56;83.05;100630.31;4335905;33;33879;-72
2022/10/28 10:04:30;;;;;;;1.23;1.20;;;;;;;14.29;84.92;100630.47;4349146;33;35980;-73
2022/10/28 10:07:04;;;;;;;1.00;1.00;;;;;;;14.57;83.35;100628.56;4349112;33;34415;-72
2022/10/28 10:09:35;;;;;;;0.77;0.77;;;;;;;14.78;83.12;100625.81;4349321;33;33439;-72
2022/10/28 10:12:08;;;;;;;1.83;1.73;;;;;;;13.99;85.72;100624.50;4335542;33;34106;-72
2022/10/28 10:14:42;;;;;;;1.73;1.45;;;;;;;14.68;83.96;100623.28;4328817;33;34680;-70
2022/10/28 10:17:17;;;;;;;11.15;2.17;;;;;;;14.82;83.60;100617.94;4333245;33;34435;-70
2022/10/28 10:20:16;;;;;;;2.37;2.17;;;;;;;15.02;80.80;100630.88;4321143;33;33346;-71
2022/10/28 10:22:47;;;;;;;1.05;0.98;;;;;;;14.64;81.56;100629.44;4347992;33;33874;-70
2022/10/28 10:25:18;;;;;;;2.33;2.12;;;;;;;14.34;82.75;100623.47;4344200;33;34401;-70
2022/10/28 10:28:01;;;;;;;2.75;2.53;;;;;;;14.22;85.39;100627.00;4345776;33;34442;-70
2022/10/28 10:30:39;;;;;;;2.22;2.12;;;;;;;14.33;84.08;100629.56;4334027;33;34324;-71
2022/10/28 10:33:23;;;;;;;3.35;2.33;;;;;;;14.46;83.53;100626.00;4345018;33;34794;-72
2022/10/28 10:35:53;;;;;;;2.30;2.15;;;;;;;14.37;85.86;100628.69;4334326;33;35025;-72
2022/10/28 10:38:28;;;;;;;11.60;2.20;;;;;;;14.44;85.34;100617.28;4346564;33;34447;-70
2022/10/28 10:40:56;;;;;;;3.33;3.03;;;;;;;14.63;83.31;100612.84;4332984;33;33445;-71
2022/10/28 10:43:34;;;;;;;2.42;2.22;;;;;;;14.52;84.57;100619.84;4343272;33;33948;-72
2022/10/28 10:46:04;;;;;;;4.68;3.70;;;;;;;14.67;83.71;100617.16;4348365;33;35000;-72
2022/10/28 10:48:35;;;;;;;2.00;1.90;;;;;;;14.34;87.51;100612.97;4346837;33;34634;-71
2022/10/28 10:51:21;;;;;;;3.08;2.60;;;;;;;14.76;84.81;100617.09;4347791;33;33383;-72
2022/10/28 10:53:51;;;;;;;1.75;1.65;;;;;;;14.39;85.38;100613.81;4348851;33;34112;-73
2022/10/28 10:56:25;;;;;;;1.85;1.75;;;;;;;15.13;80.31;100608.91;4335687;33;34829;-72
2022/10/28 10:58:55;;;;;;;2.05;1.95;;;;;;;14.88;81.89;100612.66;4335711;33;35257;-70
2022/10/28 11:01:26;;;;;;;3.10;2.90;;;;;;;14.78;82.00;100614.47;4348826;33;35527;-69
2022/10/28 11:03:58;;;;;;;3.90;2.15;;;;;;;14.38;85.25;100612.06;4349083;33;34841;-70
2022/10/28 11:06:31;;;;;;;5.45;3.12;;;;;;;14.44;84.15;100608.56;4348844;33;35109;-72
2022/10/28 11:09:02;;;;;;;1.50;1.40;;;;;;;14.63;84.13;100606.69;4335503;33;34408;-71
2022/10/28 11:11:38;;;;;;;5.40;4.03;;;;;;;15.07;81.69;100608.09;4334681;33;33659;-72
2022/10/28 11:14:08;;;;;;;2.25;2.05;;;;;;;14.32;85.77;100607.75;4348426;33;33937;-71
2022/10/28 11:16:51;;;;;;;2.97;2.50;;;;;;;14.74;83.39;100615.38;4334080;33;34465;-71
2022/10/28 11:19:22;;;;;;;3.35;3.08;;;;;;;15.17;81.01;100609.75;4343850;33;34760;-70
2022/10/28 11:22:15;;;;;;;3.92;2.55;;;;;;;14.64;84.13;100608.47;4333964;33;33455;-73
2022/10/28 11:24:50;;;;;;;3.62;2.95;;;;;;;14.95;82.34;100609.09;4342377;33;33842;-71
2022/10/28 11:27:36;;;;;;;1.37;1.05;;;;;;;15.33;79.97;100611.34;4335504;33;35748;-71
2022/10/28 11:30:05;;;;;;;4.53;3.40;;;;;;;14.92;80.71;100604.72;4348659;33;35233;-73
2022/10/28 11:33:06;;;;;;;17.40;4.40;;;;;;;14.77;82.42;100605.75;4332929;33;33992;-75
2022/10/28 11:36:01;;;;;;;6.50;3.28;;;;;;;14.72;83.93;100604.03;4333981;33;34900;-70
2022/10/28 11:38:53;;;;;;;1.48;1.27;;;;;;;14.72;82.46;100607.53;4333881;33;35132;-70
2022/10/28 11:41:35;;;;;;;1.77;1.67;;;;;;;14.11;87.10;100594.75;4333771;33;34398;-71
2022/10/28 11:44:15;;;;;;;0.95;0.95;;;;;;;14.49;84.44;100601.50;4334167;33;33415;-74
2022/10/28 11:47:15;;;;;;;2.70;2.45;;;;;;;14.49;85.51;100597.16;4346750;33;34123;-69
2022/10/28 11:50:02;;;;;;;1.90;1.75;;;;;;;14.65;83.95;100595.34;4335184;33;35060;-71
2022/10/28 11:52:34;;;;;;;3.50;2.58;;;;;;;14.49;84.55;100589.31;4348446;33;34141;-71